createdAt,value
2022-12-09T17:13:48.558Z,18.37
2022-12-09T17:16:34.518Z,18.46
2022-12-09T17:19:23.394Z,18.58
2022-12-09T17:22:08.347Z,18.73
2022-12-09T17:24:53.386Z,18.78
2022-12-09T17:27:38.770Z,18.84
2022-12-09T17:30:23.627Z,18.83
2022-12-09T17:33:08.399Z,18.84
2022-12-09T17:35:53.255Z,18.82
2022-12-09T17:38:38.131Z,18.91
2022-12-09T17:41:22.888Z,18.86
2022-12-09T17:44:07.750Z,18.83
2022-12-09T17:46:52.549Z,18.84
2022-12-09T17:49:37.503Z,18.87
2022-12-09T17:52:22.458Z,18.90
2022-12-09T17:55:07.754Z,18.86
2022-12-09T17:57:54.405Z,18.90
2022-12-09T18:00:39.841Z,18.85
2022-12-09T18:03:53.916Z,18.83
2022-12-09T18:06:30.096Z,18.84
2022-12-09T18:09:15.076Z,18.81
2022-12-09T18:12:00.194Z,18.74
2022-12-09T18:14:45.082Z,18.76
2022-12-09T18:17:29.920Z,18.82
2022-12-09T18:20:14.913Z,18.81
2022-12-09T18:22:59.729Z,18.81
2022-12-09T18:25:44.598Z,18.75
2022-12-09T18:28:29.343Z,18.69
2022-12-09T18:31:14.514Z,18.80
2022-12-09T18:33:59.704Z,18.82
2022-12-09T18:36:44.636Z,18.84
2022-12-09T18:39:29.558Z,18.76
2022-12-09T18:42:14.492Z,18.74
2022-12-09T18:44:59.553Z,18.69
2022-12-09T18:47:44.525Z,18.69
2022-12-09T18:50:29.485Z,18.76
2022-12-09T18:53:14.905Z,18.73
2022-12-09T18:56:00.063Z,18.76
2022-12-09T19:01:50.021Z,18.75
2022-12-09T19:04:35.645Z,18.71
2022-12-09T19:07:21.103Z,18.64
2022-12-09T19:10:06.242Z,18.64
2022-12-09T19:12:56.345Z,18.65
2022-12-09T19:15:42.005Z,18.65
2022-12-09T19:18:26.721Z,18.64
2022-12-09T19:21:11.737Z,18.63
2022-12-09T19:23:56.534Z,18.62
2022-12-09T19:26:41.688Z,18.60
2022-12-09T19:29:27.093Z,18.66
2022-12-09T19:32:36.648Z,18.58
2022-12-09T19:35:17.194Z,18.63
2022-12-09T19:38:02.025Z,18.63
2022-12-09T19:40:48.258Z,18.62
2022-12-09T19:43:33.634Z,18.59
2022-12-09T19:46:19.301Z,18.66
2022-12-09T19:49:05.112Z,18.59
2022-12-09T19:51:50.295Z,18.63
2022-12-09T19:54:35.413Z,18.54
2022-12-09T19:57:20.277Z,18.60
2022-12-09T20:00:05.482Z,18.65
2022-12-09T20:02:50.591Z,18.61
2022-12-09T20:05:36.046Z,18.53
2022-12-09T20:08:20.980Z,18.55
2022-12-09T20:11:05.873Z,18.54
2022-12-09T20:13:51.366Z,18.58
2022-12-09T20:16:36.514Z,18.67
2022-12-09T20:19:21.340Z,18.71
2022-12-09T20:22:06.360Z,18.61
2022-12-09T20:24:51.435Z,18.63
2022-12-09T20:27:36.413Z,18.62
2022-12-09T20:30:21.130Z,18.62
2022-12-09T20:33:06.038Z,18.58
2022-12-09T20:35:50.948Z,18.63
2022-12-09T20:38:35.802Z,18.62
2022-12-09T20:41:20.722Z,18.56
2022-12-09T20:44:05.624Z,18.55
2022-12-09T20:46:50.558Z,18.62
2022-12-09T20:49:36.374Z,18.58
2022-12-09T20:52:21.917Z,18.67
2022-12-09T20:55:07.340Z,18.63
2022-12-09T20:57:52.514Z,18.60
2022-12-09T21:00:38.635Z,18.60
2022-12-09T21:03:23.940Z,18.48
2022-12-09T21:06:08.737Z,18.57
2022-12-09T21:08:53.915Z,18.59
2022-12-09T21:11:39.341Z,18.53
2022-12-09T21:14:29.432Z,18.53
2022-12-09T21:17:17.554Z,18.61
2022-12-09T21:20:02.434Z,18.54
2022-12-09T21:22:59.348Z,18.50
2022-12-09T21:25:53.261Z,18.42
2022-12-09T21:28:38.695Z,18.44
2022-12-09T21:31:24.112Z,18.56
2022-12-09T21:34:09.640Z,18.50
2022-12-09T21:36:55.339Z,18.56
2022-12-09T21:39:40.789Z,18.57
2022-12-09T21:42:26.155Z,18.51
2022-12-09T21:45:11.102Z,18.43
2022-12-09T21:47:57.434Z,18.41
2022-12-09T21:50:42.861Z,18.43
2022-12-09T21:53:28.262Z,18.49
2022-12-09T21:56:13.114Z,18.44
2022-12-09T21:58:58.265Z,18.42
2022-12-09T22:01:43.609Z,18.48
2022-12-09T22:04:29.056Z,18.51
